Time;durP1;ratioP1;P1;durP2;ratioP2;P2;SDS_P1;SDS_P2;PMS_P1;PMS_P2;Temp;Humidity;BMP_temperature;BMP_pressure;BME280_temperature;BME280_humidity;BME280_pressure;Samples;Min_cycle;Max_cycle;Signal;HPM_P1;HPM_P2
2023/04/30 00:00:37;;;;;;;10.07;3.33;;;;;;;;;;4941086;28;102448;-79
2023/04/30 00:03:03;;;;;;;7.72;3.33;;;;;;;;;;4937636;28;98513;-79
2023/04/30 00:05:30;;;;;;;8.32;3.00;;;;;;;;;;4924444;28;102738;-79
2023/04/30 00:07:57;;;;;;;9.63;2.92;;;;;;;;;;4943213;28;99668;-79
2023/04/30 00:10:23;;;;;;;9.07;3.22;;;;;;;;;;4941432;28;99201;-78
2023/04/30 00:12:50;;;;;;;8.10;3.47;;;;;;;;;;4943591;28;99358;-78
2023/04/30 00:15:16;;;;;;;10.52;2.72;;;;;;;;;;4944413;28;99130;-79
2023/04/30 00:17:43;;;;;;;8.07;3.05;;;;;;;;;;4943569;28;97774;-80
2023/04/30 00:20:09;;;;;;;8.10;3.47;;;;;;;;;;4928199;28;98657;-80
2023/04/30 00:22:36;;;;;;;8.57;2.90;;;;;;;;;;4925190;28;98858;-79
2023/04/30 00:25:03;;;;;;;7.55;2.80;;;;;;;;;;4942270;28;99738;-79
2023/04/30 00:27:30;;;;;;;11.82;3.42;;;;;;;;;;4942450;28;99512;-79
2023/04/30 00:29:57;;;;;;;8.50;3.00;;;;;;;;;;4939587;28;98657;-79
2023/04/30 00:32:23;;;;;;;8.13;3.10;;;;;;;;;;4943051;28;98789;-78
2023/04/30 00:34:50;;;;;;;8.35;3.05;;;;;;;;;;4912258;28;101854;-79
2023/04/30 00:37:18;;;;;;;11.50;3.70;;;;;;;;;;4941128;28;99015;-79
2023/04/30 00:39:44;;;;;;;9.43;3.30;;;;;;;;;;4937184;28;99188;-79
2023/04/30 00:42:11;;;;;;;8.60;3.17;;;;;;;;;;4940927;28;98479;-80
2023/04/30 00:44:37;;;;;;;11.98;3.42;;;;;;;;;;4940490;28;100877;-81
2023/04/30 00:47:04;;;;;;;12.10;3.67;;;;;;;;;;4944981;28;99246;-81
2023/04/30 00:49:30;;;;;;;8.57;4.07;;;;;;;;;;4945330;28;99775;-80
2023/04/30 00:51:57;;;;;;;9.40;3.25;;;;;;;;;;4944084;28;102986;-80
2023/04/30 00:54:24;;;;;;;7.95;3.70;;;;;;;;;;4925945;28;101772;-79
2023/04/30 00:56:51;;;;;;;9.90;3.90;;;;;;;;;;4946104;28;99005;-80
2023/04/30 00:59:17;;;;;;;6.82;3.00;;;;;;;;;;4943853;28;101457;-79
2023/04/30 01:01:44;;;;;;;7.95;3.30;;;;;;;;;;4945854;28;100349;-80
2023/04/30 01:04:11;;;;;;;7.70;3.50;;;;;;;;;;4950011;28;99156;-80
2023/04/30 01:06:37;;;;;;;8.70;3.25;;;;;;;;;;4940909;28;98428;-79
2023/04/30 01:09:04;;;;;;;8.95;3.50;;;;;;;;;;4926430;28;98535;-79
2023/04/30 01:11:34;;;;;;;6.40;3.05;;;;;;;;;;4926636;28;99488;-81
2023/04/30 01:14:01;;;;;;;10.35;3.00;;;;;;;;;;4926178;28;99818;-80
2023/04/30 01:16:29;;;;;;;9.50;3.20;;;;;;;;;;4925434;28;98884;-80
2023/04/30 01:19:03;;;;;;;8.02;3.25;;;;;;;;;;4940954;28;101905;-80
2023/04/30 01:21:32;;;;;;;6.55;2.90;;;;;;;;;;4924511;28;99658;-80
2023/04/30 01:24:17;;;;;;;7.72;3.03;;;;;;;;;;4944041;28;98541;-80
2023/04/30 01:26:45;;;;;;;;;;;;;;;;;;4944468;28;106062;-80
2023/04/30 01:29:13;;;;;;;8.00;3.03;;;;;;;;;;4927757;28;100263;-80
2023/04/30 01:31:42;;;;;;;7.45;3.28;;;;;;;;;;4925169;28;100144;-81
2023/04/30 01:34:09;;;;;;;9.30;3.28;;;;;;;;;;4939795;28;105875;-81
2023/04/30 01:36:53;;;;;;;7.90;2.90;;;;;;;;;;4926237;28;99541;-80
2023/04/30 01:39:25;;;;;;;6.72;3.15;;;;;;;;;;4939823;28;100980;-80
2023/04/30 01:41:56;;;;;;;7.75;3.20;;;;;;;;;;4924610;28;100329;-80
2023/04/30 01:44:41;;;;;;;6.28;2.80;;;;;;;;;;4939784;28;99172;-80
2023/04/30 01:47:27;;;;;;;7.68;3.17;;;;;;;;;;4928987;28;98704;-78
2023/04/30 01:49:54;;;;;;;;;;;;;;;;;;4924175;28;98594;-80
2023/04/30 01:52:41;;;;;;;14.63;3.47;;;;;;;;;;4940189;28;126038;-81
2023/04/30 01:55:13;;;;;;;8.85;3.28;;;;;;;;;;4923095;28;102879;-81
2023/04/30 01:57:41;;;;;;;7.45;3.10;;;;;;;;;;4916351;28;98293;-81
2023/04/30 02:00:11;;;;;;;7.70;3.15;;;;;;;;;;4920345;28;99406;-80
2023/04/30 02:02:40;;;;;;;8.02;3.40;;;;;;;;;;4928634;28;105914;-80
2023/04/30 02:05:07;;;;;;;6.65;2.90;;;;;;;;;;4937109;28;99411;-80
2023/04/30 02:07:45;;;;;;;6.80;3.25;;;;;;;;;;4943770;28;101983;-80
2023/04/30 02:10:12;;;;;;;6.65;2.95;;;;;;;;;;4947097;28;99341;-80
2023/04/30 02:12:39;;;;;;;8.65;3.58;;;;;;;;;;4934471;28;100511;-79
2023/04/30 02:15:06;;;;;;;7.85;3.35;;;;;;;;;;4926933;28;101952;-79
2023/04/30 02:17:32;;;;;;;7.28;3.38;;;;;;;;;;4912013;28;98987;-79
2023/04/30 02:19:59;;;;;;;8.77;3.08;;;;;;;;;;4926719;28;100188;-77
2023/04/30 02:22:26;;;;;;;6.82;2.90;;;;;;;;;;4943543;28;98724;-78
2023/04/30 02:24:54;;;;;;;5.93;2.83;;;;;;;;;;4944685;28;98917;-79
2023/04/30 02:27:22;;;;;;;7.35;3.13;;;;;;;;;;4952708;28;99889;-78
2023/04/30 02:29:48;;;;;;;;;;;;;;;;;;4946403;28;99791;-78
2023/04/30 02:32:15;;;;;;;7.40;3.22;;;;;;;;;;4943588;28;98512;-78
2023/04/30 02:34:42;;;;;;;6.28;3.00;;;;;;;;;;4942696;28;102442;-79
2023/04/30 02:37:09;;;;;;;9.40;3.10;;;;;;;;;;4932282;28;98603;-80
2023/04/30 02:39:35;;;;;;;8.38;3.45;;;;;;;;;;4946200;28;99360;-79
2023/04/30 02:42:03;;;;;;;8.82;3.35;;;;;;;;;;4945083;28;99591;-80
2023/04/30 02:44:30;;;;;;;7.82;3.35;;;;;;;;;;4943314;28;99349;-80
2023/04/30 02:46:56;;;;;;;7.18;2.97;;;;;;;;;;4946528;28;98744;-79
2023/04/30 02:49:22;;;;;;;8.65;3.35;;;;;;;;;;4937516;28;100457;-80
2023/04/30 02:51:50;;;;;;;7.82;3.45;;;;;;;;;;4945271;28;98617;-80
2023/04/30 02:54:17;;;;;;;8.82;3.35;;;;;;;;;;4928561;28;101341;-79
2023/04/30 02:56:44;;;;;;;8.02;3.35;;;;;;;;;;4943978;28;98557;-79
2023/04/30 02:59:11;;;;;;;7.20;2.78;;;;;;;;;;4945177;28;98698;-80
2023/04/30 03:01:38;;;;;;;8.30;3.17;;;;;;;;;;4926287;28;100922;-81
2023/04/30 03:04:05;;;;;;;7.65;3.00;;;;;;;;;;4944244;28;98554;-80
2023/04/30 03:06:31;;;;;;;7.30;2.83;;;;;;;;;;4943476;28;99348;-79
2023/04/30 03:08:59;;;;;;;6.75;2.80;;;;;;;;;;4941791;28;99934;-80
2023/04/30 03:11:26;;;;;;;6.80;2.78;;;;;;;;;;4944159;28;98915;-79
2023/04/30 03:13:52;;;;;;;8.63;2.78;;;;;;;;;;4944518;28;98941;-80
2023/04/30 03:16:20;;;;;;;8.40;3.10;;;;;;;;;;4945973;28;99356;-80
2023/04/30 03:18:46;;;;;;;;;;;;;;;;;;4942167;28;101101;-79
2023/04/30 03:21:13;;;;;;;6.93;3.08;;;;;;;;;;4945177;28;103320;-79
2023/04/30 03:23:40;;;;;;;7.13;3.20;;;;;;;;;;4944029;28;98707;-80
2023/04/30 03:26:07;;;;;;;7.55;2.83;;;;;;;;;;4949643;28;98853;-80
2023/04/30 03:28:34;;;;;;;6.20;2.70;;;;;;;;;;4950948;28;99188;-79
2023/04/30 03:31:04;;;;;;;;;;;;;;;;;;4952274;28;99157;-80
2023/04/30 03:33:31;;;;;;;12.80;3.50;;;;;;;;;;4947339;28;121310;-79
2023/04/30 03:35:58;;;;;;;10.43;3.55;;;;;;;;;;4950581;28;98619;-80
2023/04/30 03:38:24;;;;;;;6.97;3.15;;;;;;;;;;4926583;28;100571;-79
2023/04/30 03:40:51;;;;;;;10.48;3.70;;;;;;;;;;4944041;28;99344;-80
2023/04/30 03:43:17;;;;;;;7.60;3.10;;;;;;;;;;4954507;28;99403;-80
2023/04/30 03:45:44;;;;;;;8.55;3.10;;;;;;;;;;4943965;28;99551;-80
2023/04/30 03:48:11;;;;;;;6.53;2.80;;;;;;;;;;4943233;28;101802;-80
2023/04/30 03:50:37;;;;;;;7.35;3.03;;;;;;;;;;4941252;28;98694;-79
2023/04/30 03:53:04;;;;;;;7.57;3.05;;;;;;;;;;4943437;28;98716;-79
2023/04/30 03:55:31;;;;;;;8.85;3.13;;;;;;;;;;4925215;28;101789;-79
2023/04/30 03:57:58;;;;;;;8.40;3.28;;;;;;;;;;4947136;28;98578;-79
2023/04/30 04:00:25;;;;;;;8.55;3.10;;;;;;;;;;4926669;28;101624;-78
2023/04/30 04:02:52;;;;;;;5.90;3.05;;;;;;;;;;4946830;28;98944;-79
2023/04/30 04:05:19;;;;;;;7.80;3.15;;;;;;;;;;4928189;28;100803;-79
2023/04/30 04:07:45;;;;;;;7.53;2.83;;;;;;;;;;4907730;28;99764;-78
2023/04/30 04:10:12;;;;;;;7.47;3.17;;;;;;;;;;4907984;28;99001;-79
2023/04/30 04:12:39;;;;;;;6.55;2.85;;;;;;;;;;4915854;28;98604;-78
2023/04/30 04:15:06;;;;;;;8.57;3.20;;;;;;;;;;4918237;28;99239;-78
2023/04/30 04:17:32;;;;;;;6.70;3.08;;;;;;;;;;4913133;28;98352;-79
2023/04/30 04:19:58;;;;;;;7.20;3.13;;;;;;;;;;4918635;28;99263;-79
2023/04/30 04:22:25;;;;;;;5.75;2.60;;;;;;;;;;4935678;28;99019;-79
2023/04/30 04:24:53;;;;;;;6.60;2.95;;;;;;;;;;4923419;28;101748;-79
2023/04/30 04:27:22;;;;;;;6.85;3.00;;;;;;;;;;4922040;28;101678;-79
2023/04/30 04:29:48;;;;;;;;;;;;;;;;;;4908298;28;98823;-80
2023/04/30 04:32:15;;;;;;;7.35;3.28;;;;;;;;;;4908873;28;116695;-78
2023/04/30 04:34:42;;;;;;;7.60;3.30;;;;;;;;;;4925063;28;102459;-79
2023/04/30 04:37:09;;;;;;;7.63;3.20;;;;;;;;;;4909412;28;98943;-80
2023/04/30 04:39:36;;;;;;;7.55;3.38;;;;;;;;;;4923210;28;101606;-80
2023/04/30 04:42:03;;;;;;;8.85;3.90;;;;;;;;;;4925241;28;101703;-79
2023/04/30 04:44:31;;;;;;;;;;;;;;;;;;4914683;28;101291;-79
2023/04/30 04:46:57;;;;;;;7.28;3.58;;;;;;;;;;4906603;28;109295;-79
2023/04/30 04:49:24;;;;;;;7.53;2.92;;;;;;;;;;4905656;28;97908;-80
2023/04/30 04:51:51;;;;;;;7.90;3.40;;;;;;;;;;4907479;28;98614;-80
2023/04/30 04:54:17;;;;;;;6.20;3.00;;;;;;;;;;4920123;28;101812;-80
2023/04/30 04:56:44;;;;;;;7.25;3.15;;;;;;;;;;4920365;28;99786;-79
2023/04/30 04:59:11;;;;;;;6.88;3.20;;;;;;;;;;4907284;28;100088;-79
2023/04/30 05:01:37;;;;;;;7.43;3.10;;;;;;;;;;4907512;28;99225;-79
2023/04/30 05:04:04;;;;;;;8.02;3.10;;;;;;;;;;4910157;28;98712;-80
2023/04/30 05:06:31;;;;;;;7.10;2.72;;;;;;;;;;4927940;28;101547;-79
2023/04/30 05:08:58;;;;;;;6.88;3.15;;;;;;;;;;4940053;28;98825;-79
2023/04/30 05:11:24;;;;;;;7.20;2.70;;;;;;;;;;4925417;28;101215;-79
2023/04/30 05:13:51;;;;;;;7.00;3.00;;;;;;;;;;4924378;28;99679;-81
2023/04/30 05:16:18;;;;;;;7.82;2.95;;;;;;;;;;4924932;28;98531;-80
2023/04/30 05:18:44;;;;;;;7.88;3.08;;;;;;;;;;4925898;28;100613;-81
2023/04/30 05:21:11;;;;;;;7.07;3.00;;;;;;;;;;4939695;28;99857;-80
2023/04/30 05:23:37;;;;;;;6.90;2.83;;;;;;;;;;4925996;28;98779;-80
2023/04/30 05:26:04;;;;;;;6.85;3.15;;;;;;;;;;4949532;28;101538;-81
2023/04/30 05:28:30;;;;;;;5.85;2.90;;;;;;;;;;4925838;28;99071;-80
2023/04/30 05:30:57;;;;;;;5.93;2.65;;;;;;;;;;4925527;28;99044;-80
2023/04/30 05:33:23;;;;;;;6.95;2.70;;;;;;;;;;4923525;28;101817;-80
2023/04/30 05:35:50;;;;;;;7.18;2.97;;;;;;;;;;4926144;28;99183;-79
2023/04/30 05:38:16;;;;;;;6.75;2.90;;;;;;;;;;4931415;28;99393;-80
2023/04/30 05:40:43;;;;;;;6.28;2.70;;;;;;;;;;4939502;28;99354;-79
2023/04/30 05:43:09;;;;;;;7.45;2.65;;;;;;;;;;4925616;28;99144;-79
2023/04/30 05:45:36;;;;;;;7.68;3.05;;;;;;;;;;4942658;28;99637;-81
2023/04/30 05:48:03;;;;;;;6.63;2.70;;;;;;;;;;4926090;28;98975;-80
2023/04/30 05:50:29;;;;;;;5.63;2.42;;;;;;;;;;4923977;28;98599;-79
2023/04/30 05:52:56;;;;;;;5.55;2.80;;;;;;;;;;4923678;28;102251;-80
2023/04/30 05:55:22;;;;;;;6.82;2.78;;;;;;;;;;4924925;28;99245;-82
2023/04/30 05:57:51;;;;;;;7.13;2.97;;;;;;;;;;4925449;28;99078;-80
2023/04/30 06:00:18;;;;;;;6.63;2.50;;;;;;;;;;4924130;28;99611;-80
2023/04/30 06:02:45;;;;;;;6.53;2.95;;;;;;;;;;4926239;28;98523;-80
2023/04/30 06:05:11;;;;;;;7.07;2.90;;;;;;;;;;4939506;28;99206;-80
2023/04/30 06:07:41;;;;;;;5.85;2.80;;;;;;;;;;4945366;28;99820;-80
2023/04/30 06:10:09;;;;;;;6.18;2.83;;;;;;;;;;4942487;28;99675;-80
2023/04/30 06:12:35;;;;;;;;;;;;;;;;;;4942349;28;99179;-80
2023/04/30 06:15:02;;;;;;;6.40;2.83;;;;;;;;;;4944251;28;109209;-81
2023/04/30 06:17:28;;;;;;;6.95;2.95;;;;;;;;;;4944733;28;99856;-81
2023/04/30 06:19:57;;;;;;;6.47;2.65;;;;;;;;;;4944352;28;100844;-80
2023/04/30 06:22:23;;;;;;;7.93;2.70;;;;;;;;;;4943910;28;98767;-80
2023/04/30 06:24:50;;;;;;;6.93;2.90;;;;;;;;;;4942220;28;98991;-80
2023/04/30 06:27:16;;;;;;;8.90;3.03;;;;;;;;;;4944371;28;98861;-81
2023/04/30 06:29:43;;;;;;;15.07;3.95;;;;;;;;;;4946700;28;98915;-81
2023/04/30 06:32:09;;;;;;;9.85;3.58;;;;;;;;;;4944293;28;99853;-82
2023/04/30 06:34:36;;;;;;;9.25;3.25;;;;;;;;;;4929843;28;99600;-81
2023/04/30 06:37:02;;;;;;;8.02;3.67;;;;;;;;;;4944713;28;99081;-82
2023/04/30 06:39:29;;;;;;;9.27;3.78;;;;;;;;;;4944923;28;99347;-82
2023/04/30 06:41:56;;;;;;;9.82;3.40;;;;;;;;;;4946121;28;99229;-81
2023/04/30 06:44:22;;;;;;;8.85;3.58;;;;;;;;;;4943278;28;98653;-80
2023/04/30 06:46:49;;;;;;;7.75;3.47;;;;;;;;;;4925211;28;101143;-80
2023/04/30 06:49:15;;;;;;;8.63;3.28;;;;;;;;;;4944220;28;98608;-80
2023/04/30 06:51:42;;;;;;;7.68;3.53;;;;;;;;;;4945286;28;99501;-79
2023/04/30 06:54:09;;;;;;;8.40;2.92;;;;;;;;;;4940407;28;98916;-82
2023/04/30 06:56:36;;;;;;;;;;;;;;;;;;4942726;28;98779;-82
2023/04/30 06:59:02;;;;;;;5.07;1.80;;;;;;;;;;4942154;28;110903;-82
2023/04/30 07:01:29;;;;;;;5.57;1.90;;;;;;;;;;4924283;28;98923;-82
2023/04/30 07:03:56;;;;;;;6.55;1.98;;;;;;;;;;4943054;28;99960;-82
2023/04/30 07:06:23;;;;;;;2.88;1.60;;;;;;;;;;4942016;28;100070;-83
2023/04/30 07:08:50;;;;;;;3.75;1.85;;;;;;;;;;4927545;28;99227;-82
2023/04/30 07:11:16;;;;;;;4.55;1.80;;;;;;;;;;4943377;28;99027;-83
2023/04/30 07:13:43;;;;;;;3.38;1.60;;;;;;;;;;4945356;28;99680;-82
2023/04/30 07:16:10;;;;;;;4.50;1.90;;;;;;;;;;4940541;28;101890;-83
2023/04/30 07:18:37;;;;;;;3.85;1.60;;;;;;;;;;4943470;28;99226;-83
2023/04/30 07:21:03;;;;;;;8.00;2.10;;;;;;;;;;4944282;28;99255;-80
2023/04/30 07:23:30;;;;;;;4.82;1.80;;;;;;;;;;4944886;28;99480;-82
2023/04/30 07:25:56;;;;;;;4.45;1.70;;;;;;;;;;4947003;28;99832;-83
2023/04/30 07:28:23;;;;;;;5.65;1.70;;;;;;;;;;4942460;28;100913;-82
2023/04/30 07:30:50;;;;;;;3.83;1.60;;;;;;;;;;4943078;28;99399;-80
2023/04/30 07:33:16;;;;;;;3.30;1.70;;;;;;;;;;4945209;28;98494;-82
2023/04/30 07:35:43;;;;;;;3.38;1.60;;;;;;;;;;4958307;28;98866;-82
2023/04/30 07:38:10;;;;;;;3.80;1.77;;;;;;;;;;4959012;28;98525;-85
2023/04/30 07:40:36;;;;;;;7.47;1.83;;;;;;;;;;4948852;28;97984;-84
2023/04/30 07:43:06;;;;;;;12.50;1.90;;;;;;;;;;4943320;28;98992;-80
2023/04/30 07:45:33;;;;;;;21.48;3.00;;;;;;;;;;4942855;28;100479;-83
2023/04/30 07:48:00;;;;;;;;;;;;;;;;;;4942662;28;99730;-83
2023/04/30 07:50:28;;;;;;;10.27;2.00;;;;;;;;;;4944342;28;106058;-83
2023/04/30 07:52:55;;;;;;;12.18;2.10;;;;;;;;;;4941975;28;99255;-83
2023/04/30 07:55:21;;;;;;;12.27;2.15;;;;;;;;;;4946829;28;98997;-84
2023/04/30 07:57:48;;;;;;;11.90;1.92;;;;;;;;;;4943731;28;100252;-82
2023/04/30 08:00:15;;;;;;;7.45;1.85;;;;;;;;;;4933862;28;98566;-85
2023/04/30 08:02:44;;;;;;;8.02;2.10;;;;;;;;;;4947984;28;103266;-83
2023/04/30 08:05:11;;;;;;;6.07;1.70;;;;;;;;;;4946841;28;98523;-85
2023/04/30 08:07:38;;;;;;;6.10;2.00;;;;;;;;;;4946839;28;98774;-84
2023/04/30 08:10:05;;;;;;;6.63;1.75;;;;;;;;;;4944739;28;101812;-82
2023/04/30 08:12:35;;;;;;;4.78;1.60;;;;;;;;;;4944329;28;100071;-85
2023/04/30 08:15:04;;;;;;;6.50;1.73;;;;;;;;;;4947237;28;99047;-82
2023/04/30 08:17:31;;;;;;;4.55;1.60;;;;;;;;;;4951543;28;99398;-80
2023/04/30 08:19:59;;;;;;;5.70;1.65;;;;;;;;;;4930467;28;98588;-83
2023/04/30 08:22:25;;;;;;;6.03;1.67;;;;;;;;;;4949280;28;99412;-82
2023/04/30 08:24:54;;;;;;;7.40;1.80;;;;;;;;;;4952527;28;99137;-83
2023/04/30 08:27:21;;;;;;;7.43;1.70;;;;;;;;;;4953008;28;99064;-84
2023/04/30 08:29:47;;;;;;;8.25;2.10;;;;;;;;;;4953679;28;98271;-84
2023/04/30 08:32:14;;;;;;;6.15;1.70;;;;;;;;;;4951483;28;99150;-83
2023/04/30 08:34:42;;;;;;;7.25;1.80;;;;;;;;;;4951744;28;99120;-82
2023/04/30 08:37:09;;;;;;;6.95;2.75;;;;;;;;;;4946346;28;100193;-82
2023/04/30 08:39:35;;;;;;;8.85;3.78;;;;;;;;;;4950429;28;99801;-85
2023/04/30 08:42:03;;;;;;;11.02;5.20;;;;;;;;;;4946040;28;100424;-82
2023/04/30 08:44:29;;;;;;;;;;;;;;;;;;4943766;28;99532;-81
2023/04/30 08:46:59;;;;;;;10.20;5.20;;;;;;;;;;4946386;28;98976;-82
2023/04/30 08:49:27;;;;;;;11.45;4.95;;;;;;;;;;4946694;28;99446;-85
2023/04/30 08:51:53;;;;;;;10.80;5.20;;;;;;;;;;4941832;28;99368;-84
2023/04/30 08:54:21;;;;;;;9.70;4.68;;;;;;;;;;4947214;28;98014;-83
2023/04/30 08:56:48;;;;;;;9.93;4.55;;;;;;;;;;4928262;28;100671;-84
2023/04/30 08:59:15;;;;;;;10.95;4.88;;;;;;;;;;4946150;28;99305;-83
2023/04/30 09:01:42;;;;;;;10.32;4.82;;;;;;;;;;4946817;28;99783;-84
2023/04/30 09:04:08;;;;;;;8.82;4.50;;;;;;;;;;4942879;28;99223;-84
2023/04/30 09:06:35;;;;;;;8.90;4.50;;;;;;;;;;4935642;28;98909;-84
2023/04/30 09:09:07;;;;;;;9.02;4.00;;;;;;;;;;4907087;28;99851;-84
2023/04/30 09:11:34;;;;;;;9.38;4.00;;;;;;;;;;4905446;28;99245;-83
2023/04/30 09:14:00;;;;;;;9.00;4.20;;;;;;;;;;4893690;28;99218;-83
2023/04/30 09:16:31;;;;;;;7.18;3.60;;;;;;;;;;4904791;28;98999;-83
2023/04/30 09:18:58;;;;;;;8.68;3.90;;;;;;;;;;4906648;28;100091;-83
2023/04/30 09:21:35;;;;;;;7.95;3.50;;;;;;;;;;4920660;28;98803;-84
2023/04/30 09:24:02;;;;;;;8.88;3.60;;;;;;;;;;4908532;28;99641;-83
2023/04/30 09:26:33;;;;;;;7.65;3.30;;;;;;;;;;4904333;28;100809;-82
2023/04/30 09:29:06;;;;;;;6.90;3.40;;;;;;;;;;4906092;28;99655;-82
2023/04/30 09:31:36;;;;;;;8.05;3.20;;;;;;;;;;4905462;28;100681;-82
2023/04/30 09:34:03;;;;;;;6.68;3.05;;;;;;;;;;4906363;28;98816;-83
2023/04/30 09:36:30;;;;;;;7.15;2.83;;;;;;;;;;4905393;28;100022;-82
2023/04/30 09:39:18;;;;;;;7.57;3.00;;;;;;;;;;4906003;28;100144;-83
2023/04/30 09:41:45;;;;;;;7.35;2.80;;;;;;;;;;4906744;28;99317;-83
2023/04/30 09:44:28;;;;;;;8.40;2.90;;;;;;;;;;4926876;28;99144;-83
2023/04/30 09:46:57;;;;;;;6.78;2.95;;;;;;;;;;4914331;28;98814;-82
2023/04/30 09:49:25;;;;;;;7.22;2.80;;;;;;;;;;4905225;28;101119;-83
2023/04/30 09:52:00;;;;;;;6.53;2.85;;;;;;;;;;4904971;28;99905;-82
2023/04/30 09:54:30;;;;;;;6.53;3.03;;;;;;;;;;4906355;28;99075;-81
2023/04/30 09:56:58;;;;;;;4.90;2.40;;;;;;;;;;4906616;28;99565;-82
2023/04/30 09:59:27;;;;;;;6.53;2.65;;;;;;;;;;4889025;28;102184;-83
2023/04/30 10:01:54;;;;;;;6.78;2.58;;;;;;;;;;4904962;28;98744;-82
2023/04/30 10:04:20;;;;;;;6.45;2.60;;;;;;;;;;4916079;28;101820;-81
2023/04/30 10:06:50;;;;;;;5.57;2.40;;;;;;;;;;4929003;28;99643;-85
2023/04/30 10:09:17;;;;;;;6.18;2.28;;;;;;;;;;4946073;28;98460;-83
2023/04/30 10:11:44;;;;;;;6.38;2.35;;;;;;;;;;4943770;28;99225;-84
2023/04/30 10:14:11;;;;;;;6.13;2.33;;;;;;;;;;4946822;28;99008;-83
2023/04/30 10:16:53;;;;;;;6.78;2.40;;;;;;;;;;4949942;28;99329;-84
2023/04/30 10:19:24;;;;;;;5.18;2.10;;;;;;;;;;4938307;28;100243;-83
2023/04/30 10:21:51;;;;;;;5.03;2.25;;;;;;;;;;4928666;28;99063;-84
2023/04/30 10:24:18;;;;;;;7.20;2.40;;;;;;;;;;4946117;28;99082;-85
2023/04/30 10:26:46;;;;;;;6.30;2.15;;;;;;;;;;4940687;28;101641;-85
2023/04/30 10:29:13;;;;;;;6.03;2.22;;;;;;;;;;4948062;28;99435;-86
2023/04/30 10:31:42;;;;;;;5.85;2.30;;;;;;;;;;4945475;28;99002;-86
2023/04/30 10:34:13;;;;;;;4.95;1.90;;;;;;;;;;4927633;28;98103;-86
2023/04/30 10:36:48;;;;;;;5.68;2.10;;;;;;;;;;4944593;28;103392;-86
2023/04/30 10:39:17;;;;;;;5.55;2.10;;;;;;;;;;4930671;28;99481;-86
2023/04/30 10:41:48;;;;;;;4.80;1.73;;;;;;;;;;4943583;28;99271;-84
2023/04/30 10:44:15;;;;;;;4.47;1.92;;;;;;;;;;4944844;28;99421;-84
2023/04/30 10:46:41;;;;;;;5.40;1.92;;;;;;;;;;4943622;28;104085;-83
2023/04/30 10:49:10;;;;;;;5.40;1.90;;;;;;;;;;4945550;28;98583;-84
2023/04/30 10:51:46;;;;;;;5.38;1.80;;;;;;;;;;4947869;28;98942;-83
2023/04/30 10:54:21;;;;;;;4.85;1.92;;;;;;;;;;4944039;28;98906;-84
2023/04/30 10:56:50;;;;;;;4.95;1.67;;;;;;;;;;4945344;28;103325;-86
2023/04/30 10:59:16;;;;;;;4.95;1.92;;;;;;;;;;4945235;28;98331;-86
2023/04/30 11:01:56;;;;;;;6.05;1.90;;;;;;;;;;4943842;28;99417;-86
2023/04/30 11:04:24;;;;;;;3.95;1.73;;;;;;;;;;4945576;28;99802;-85
2023/04/30 11:06:54;;;;;;;7.32;1.77;;;;;;;;;;4945077;28;99881;-84
2023/04/30 11:09:39;;;;;;;4.60;1.90;;;;;;;;;;4947917;28;99471;-83
2023/04/30 11:12:20;;;;;;;4.28;1.80;;;;;;;;;;4952332;28;98981;-83
2023/04/30 11:14:48;;;;;;;4.05;1.70;;;;;;;;;;4947394;28;102556;-85
2023/04/30 11:17:22;;;;;;;3.80;1.65;;;;;;;;;;4926994;28;98784;-83
2023/04/30 11:19:50;;;;;;;3.38;1.50;;;;;;;;;;4944297;28;99641;-83
2023/04/30 11:22:23;;;;;;;5.22;1.60;;;;;;;;;;4944882;28;99007;-85
2023/04/30 11:25:03;;;;;;;4.70;1.70;;;;;;;;;;4945843;28;98632;-84
2023/04/30 11:27:30;;;;;;;4.22;1.55;;;;;;;;;;4944552;28;100279;-83
2023/04/30 11:29:57;;;;;;;4.10;1.52;;;;;;;;;;4944704;28;99266;-81
2023/04/30 11:32:26;;;;;;;4.45;1.60;;;;;;;;;;4943576;28;99370;-81
2023/04/30 11:34:53;;;;;;;3.55;1.38;;;;;;;;;;4944436;28;99098;-82
2023/04/30 11:37:23;;;;;;;5.03;1.58;;;;;;;;;;4947771;28;99009;-82
2023/04/30 11:39:50;;;;;;;3.42;1.40;;;;;;;;;;4945156;28;99123;-81
2023/04/30 11:42:19;;;;;;;3.90;1.55;;;;;;;;;;4945143;28;98546;-81
2023/04/30 11:44:46;;;;;;;3.50;1.50;;;;;;;;;;4943813;28;99515;-81
2023/04/30 11:47:13;;;;;;;5.60;1.55;;;;;;;;;;4945916;28;100302;-82
2023/04/30 11:49:40;;;;;;;4.05;1.50;;;;;;;;;;4947701;28;97948;-83
2023/04/30 11:52:08;;;;;;;3.38;1.30;;;;;;;;;;4964084;28;98489;-82
2023/04/30 11:54:35;;;;;;;4.65;1.60;;;;;;;;;;4951199;28;105301;-84
2023/04/30 11:57:02;;;;;;;6.18;1.50;;;;;;;;;;4954380;28;99547;-83
2023/04/30 11:59:30;;;;;;;6.60;1.50;;;;;;;;;;4944820;28;100339;-84
2023/04/30 12:01:57;;;;;;;4.05;1.40;;;;;;;;;;4955092;28;98689;-83
2023/04/30 12:04:24;;;;;;;5.85;1.65;;;;;;;;;;4939466;28;99879;-83
2023/04/30 12:06:51;;;;;;;7.65;1.77;;;;;;;;;;4943368;28;99424;-83
2023/04/30 12:09:18;;;;;;;3.45;1.40;;;;;;;;;;4944944;28;99149;-84
2023/04/30 12:11:46;;;;;;;5.68;1.40;;;;;;;;;;4947238;28;98912;-87
2023/04/30 12:14:14;;;;;;;19.30;1.70;;;;;;;;;;4944812;28;99171;-84
2023/04/30 12:16:44;;;;;;;9.68;2.03;;;;;;;;;;4950786;28;98799;-84
2023/04/30 12:19:11;;;;;;;18.60;2.70;;;;;;;;;;4947342;28;98878;-85
2023/04/30 12:21:40;;;;;;;10.00;1.60;;;;;;;;;;4945081;28;99746;-85
2023/04/30 12:24:07;;;;;;;12.95;1.77;;;;;;;;;;4955436;28;101894;-87
2023/04/30 12:26:34;;;;;;;;;;;;;;;;;;4942913;28;99153;-85
2023/04/30 12:29:02;;;;;;;7.22;1.70;;;;;;;;;;4947149;28;98985;-84
2023/04/30 12:31:30;;;;;;;5.80;1.50;;;;;;;;;;4946114;28;98886;-85
2023/04/30 12:33:57;;;;;;;5.75;1.58;;;;;;;;;;4946948;28;99705;-85
2023/04/30 12:36:33;;;;;;;9.68;1.40;;;;;;;;;;4945767;28;98656;-84
2023/04/30 12:39:09;;;;;;;2.88;1.27;;;;;;;;;;4947616;28;98815;-85
2023/04/30 12:41:40;;;;;;;5.63;1.40;;;;;;;;;;4950482;28;100447;-85
2023/04/30 12:44:23;;;;;;;4.53;1.23;;;;;;;;;;4962351;28;100023;-85
2023/04/30 12:47:05;;;;;;;5.35;1.30;;;;;;;;;;4950303;28;107330;-85
2023/04/30 12:49:33;;;;;;;5.30;1.30;;;;;;;;;;4968743;28;98565;-85
2023/04/30 12:52:01;;;;;;;3.65;1.20;;;;;;;;;;4964774;28;98549;-85
2023/04/30 12:54:29;;;;;;;4.10;1.40;;;;;;;;;;4958998;28;99284;-85
2023/04/30 12:57:02;;;;;;;2.90;1.23;;;;;;;;;;4955982;28;98519;-85
2023/04/30 12:59:32;;;;;;;3.10;1.35;;;;;;;;;;4956544;28;99220;-85
2023/04/30 13:02:10;;;;;;;4.80;1.50;;;;;;;;;;4957410;28;100294;-84
2023/04/30 13:04:36;;;;;;;2.88;1.15;;;;;;;;;;4944753;28;98065;-84
2023/04/30 13:07:03;;;;;;;4.72;1.30;;;;;;;;;;4956836;28;99642;-84
2023/04/30 13:09:30;;;;;;;;;;;;;;;;;;4951698;28;98839;-84
2023/04/30 13:11:57;;;;;;;2.38;1.10;;;;;;;;;;4947206;28;103045;-84
2023/04/30 13:14:23;;;;;;;2.38;1.10;;;;;;;;;;4945332;28;99088;-84
2023/04/30 13:16:50;;;;;;;2.17;1.23;;;;;;;;;;4948259;28;99093;-85
2023/04/30 13:19:17;;;;;;;2.28;1.20;;;;;;;;;;4946475;28;98711;-83
2023/04/30 13:21:43;;;;;;;2.45;1.10;;;;;;;;;;4946175;28;100235;-85
2023/04/30 13:24:10;;;;;;;2.95;1.20;;;;;;;;;;4946328;28;99162;-83
2023/04/30 13:26:37;;;;;;;3.40;1.38;;;;;;;;;;4948650;28;99121;-85
2023/04/30 13:29:03;;;;;;;4.15;1.10;;;;;;;;;;4945558;28;97766;-84
2023/04/30 13:31:30;;;;;;;2.33;1.20;;;;;;;;;;4947162;28;99169;-85
2023/04/30 13:33:57;;;;;;;1.58;0.90;;;;;;;;;;4945953;28;99237;-84
2023/04/30 13:36:23;;;;;;;2.58;1.15;;;;;;;;;;4934896;28;99673;-85
2023/04/30 13:38:50;;;;;;;2.70;1.30;;;;;;;;;;4953028;28;99581;-85
2023/04/30 13:41:16;;;;;;;1.83;1.08;;;;;;;;;;4943881;28;99226;-84
2023/04/30 13:43:45;;;;;;;2.30;1.10;;;;;;;;;;4947122;28;98489;-85
2023/04/30 13:46:12;;;;;;;2.28;1.20;;;;;;;;;;4947391;28;98884;-86
2023/04/30 13:48:38;;;;;;;;;;;;;;;;;;4948920;28;99061;-83
2023/04/30 13:51:05;;;;;;;5.40;1.80;;;;;;;;;;4945713;28;119879;-83
2023/04/30 13:53:32;;;;;;;;;;;;;;;;;;4947082;28;98447;-82
2023/04/30 13:55:58;;;;;;;10.30;1.83;;;;;;;;;;4945165;28;99188;-81
2023/04/30 13:58:25;;;;;;;7.50;1.60;;;;;;;;;;4945508;28;99528;-80
2023/04/30 14:00:52;;;;;;;9.43;1.58;;;;;;;;;;4944998;28;99955;-79
2023/04/30 14:03:19;;;;;;;4.25;1.50;;;;;;;;;;4928105;28;99331;-80
2023/04/30 14:05:46;;;;;;;4.93;1.42;;;;;;;;;;4936900;28;98820;-80
2023/04/30 14:08:13;;;;;;;3.60;1.60;;;;;;;;;;4948035;28;99075;-80
2023/04/30 14:10:40;;;;;;;4.20;1.33;;;;;;;;;;4944774;28;103287;-80
2023/04/30 14:13:06;;;;;;;4.25;1.30;;;;;;;;;;4945601;28;99144;-79
2023/04/30 14:15:33;;;;;;;3.83;1.38;;;;;;;;;;4939827;28;98994;-80
2023/04/30 14:18:00;;;;;;;;;;;;;;;;;;4942505;28;98970;-81
2023/04/30 14:20:27;;;;;;;4.68;1.40;;;;;;;;;;4945013;28;99058;-80
2023/04/30 14:22:53;;;;;;;4.07;1.23;;;;;;;;;;4943515;28;98838;-80
2023/04/30 14:25:20;;;;;;;3.83;1.30;;;;;;;;;;4946758;28;99863;-81
2023/04/30 14:27:47;;;;;;;;;;;;;;;;;;4943522;28;99786;-81
2023/04/30 14:30:14;;;;;;;3.90;1.27;;;;;;;;;;4949544;28;98593;-81
2023/04/30 14:32:40;;;;;;;3.80;1.30;;;;;;;;;;4939216;28;104136;-81
2023/04/30 14:35:08;;;;;;;7.72;1.52;;;;;;;;;;4945071;28;99100;-80
2023/04/30 14:37:35;;;;;;;4.00;1.15;;;;;;;;;;4944163;28;99464;-80
2023/04/30 14:40:01;;;;;;;3.22;1.05;;;;;;;;;;4943305;28;99577;-80
2023/04/30 14:42:28;;;;;;;3.53;1.15;;;;;;;;;;4941979;28;98343;-80
2023/04/30 14:44:54;;;;;;;3.25;1.10;;;;;;;;;;4943179;28;105696;-80
2023/04/30 14:47:21;;;;;;;3.15;1.05;;;;;;;;;;4949452;28;99226;-80